createdAt,value
2023-01-10T00:00:55.849Z,46.11
2023-01-10T00:01:56.588Z,51.02
2023-01-10T00:02:55.966Z,50.42
2023-01-10T00:03:55.831Z,50.82
2023-01-10T00:04:55.877Z,55.04
2023-01-10T00:05:55.797Z,51.12
2023-01-10T00:06:55.824Z,54.22
2023-01-10T00:07:55.789Z,51.74
2023-01-10T00:08:55.775Z,52.83
2023-01-10T00:09:55.781Z,47.61
2023-01-10T00:10:56.593Z,43.45
2023-01-10T00:11:55.750Z,52.51
2023-01-10T00:12:55.748Z,47.31
2023-01-10T00:13:55.735Z,55.54
2023-01-10T00:14:55.769Z,59.22
2023-01-10T00:15:55.773Z,53.78
2023-01-10T00:16:55.707Z,50.73
2023-01-10T00:17:55.699Z,50.81
2023-01-10T00:18:55.702Z,50.21
2023-01-10T00:19:55.681Z,58.74
2023-01-10T00:20:56.600Z,50.62
2023-01-10T00:21:55.687Z,56.92
2023-01-10T00:22:55.660Z,62.19
2023-01-10T00:23:55.657Z,49.13
2023-01-10T00:24:55.655Z,62.02
2023-01-10T00:27:48.678Z,41.59
2023-01-10T00:28:48.651Z,54.25
2023-01-10T00:29:49.750Z,58.16
2023-01-10T00:30:49.789Z,56.67
2023-01-10T00:31:49.719Z,55.21
2023-01-10T00:32:49.713Z,53.72
2023-01-10T00:33:49.705Z,48.35
2023-01-10T00:34:49.708Z,52.82
2023-01-10T00:35:49.707Z,41.37
2023-01-10T00:36:49.705Z,46.24
2023-01-10T00:37:49.682Z,47.88
2023-01-10T00:38:49.669Z,49.82
2023-01-10T00:39:50.649Z,40.28
2023-01-10T00:40:49.647Z,40.50
2023-01-10T00:41:49.633Z,45.65
2023-01-10T00:42:49.622Z,59.84
2023-01-10T00:43:49.631Z,46.34
2023-01-10T00:44:49.612Z,46.09
2023-01-10T00:45:49.617Z,60.19
2023-01-10T00:46:49.592Z,54.73
2023-01-10T00:47:49.584Z,40.46
2023-01-10T00:48:49.582Z,49.84
2023-01-10T00:49:49.573Z,50.47
2023-01-10T00:50:49.559Z,51.03
2023-01-10T00:51:49.559Z,50.67
2023-01-10T00:52:49.563Z,57.42
2023-01-10T00:53:49.544Z,44.02
2023-01-10T00:54:49.525Z,43.17
2023-01-10T00:55:49.618Z,52.52
2023-01-10T00:56:49.521Z,49.61
2023-01-10T00:57:49.518Z,51.19
2023-01-10T00:58:49.558Z,49.13
2023-01-10T00:59:49.546Z,45.77
2023-01-10T01:00:50.131Z,49.51
2023-01-10T01:01:49.660Z,55.51
2023-01-10T01:02:49.653Z,55.22
2023-01-10T01:03:50.111Z,55.32
2023-01-10T01:04:49.461Z,60.11
2023-01-10T01:05:49.437Z,52.98
2023-01-10T01:06:49.437Z,44.10
2023-01-10T01:07:49.638Z,42.91
2023-01-10T01:08:49.419Z,40.10
2023-01-10T01:09:49.413Z,50.01
2023-01-10T01:10:49.411Z,42.65
2023-01-10T01:11:49.432Z,46.59
2023-01-10T01:12:49.391Z,62.21
2023-01-10T01:13:49.382Z,41.69
2023-01-10T01:14:49.371Z,41.94
2023-01-10T01:15:49.439Z,47.96
2023-01-10T01:16:49.365Z,63.72
2023-01-10T01:17:49.349Z,51.70
2023-01-10T01:18:49.331Z,56.62
2023-01-10T01:19:49.349Z,53.02
2023-01-10T01:20:49.314Z,47.91
2023-01-10T01:21:49.316Z,66.85
2023-01-10T01:22:49.311Z,62.92
2023-01-10T01:23:49.289Z,48.83
2023-01-10T01:24:49.285Z,50.22
2023-01-10T01:25:49.271Z,42.83
2023-01-10T01:26:49.268Z,46.55
2023-01-10T01:27:49.276Z,53.15
2023-01-10T01:28:49.244Z,53.54
2023-01-10T01:29:50.180Z,49.24
2023-01-10T01:30:49.327Z,42.36
2023-01-10T01:31:49.244Z,41.75
2023-01-10T01:32:49.264Z,42.15
2023-01-10T01:33:49.209Z,51.54
2023-01-10T01:34:49.200Z,43.63
2023-01-10T01:35:49.191Z,45.91
2023-01-10T01:36:49.184Z,40.43
2023-01-10T01:37:49.226Z,42.48
2023-01-10T01:38:49.177Z,56.01
2023-01-10T01:39:50.113Z,54.73
2023-01-10T01:40:49.164Z,45.63
2023-01-10T01:41:49.133Z,45.64
2023-01-10T01:42:50.137Z,54.92
2023-01-10T01:43:49.141Z,52.23
2023-01-10T01:44:49.130Z,52.88
2023-01-10T01:45:49.123Z,48.60
2023-01-10T01:46:49.625Z,49.92
2023-01-10T01:47:49.112Z,53.54
2023-01-10T01:48:49.101Z,55.10
2023-01-10T01:49:49.100Z,42.58
2023-01-10T01:50:49.087Z,52.34
2023-01-10T01:51:49.077Z,61.75
2023-01-10T01:52:49.067Z,64.09
2023-01-10T01:53:49.074Z,63.26
2023-01-10T01:54:49.048Z,58.76
2023-01-10T01:55:49.053Z,58.83
2023-01-10T01:56:49.037Z,60.48
2023-01-10T01:57:49.034Z,57.50
2023-01-10T01:58:49.021Z,56.95
2023-01-10T01:59:49.013Z,52.94
2023-01-10T02:00:49.001Z,45.24
2023-01-10T02:01:49.019Z,56.40
2023-01-10T02:03:01.839Z,56.85
2023-01-10T02:03:51.043Z,44.38
2023-01-10T02:04:48.983Z,55.88
2023-01-10T02:05:48.969Z,54.66
2023-01-10T02:06:48.962Z,61.62
2023-01-10T02:07:48.938Z,52.00
2023-01-10T02:08:48.942Z,40.52
2023-01-10T02:09:48.941Z,59.18
2023-01-10T02:10:48.959Z,51.93
2023-01-10T02:11:49.558Z,41.97
2023-01-10T02:12:48.921Z,63.93
2023-01-10T02:13:48.894Z,52.39
2023-01-10T02:14:48.899Z,50.40
2023-01-10T02:15:48.920Z,50.99
2023-01-10T02:16:48.867Z,57.78
2023-01-10T02:17:48.864Z,42.08
2023-01-10T02:18:48.854Z,54.28
2023-01-10T02:19:48.843Z,49.28
2023-01-10T02:20:48.835Z,47.71
2023-01-10T02:21:48.825Z,49.92
2023-01-10T02:22:48.828Z,40.47
2023-01-10T02:23:48.816Z,39.74
2023-01-10T02:24:48.818Z,41.54
2023-01-10T02:25:48.805Z,42.52
2023-01-10T02:26:48.781Z,46.62
2023-01-10T02:27:48.813Z,48.28
2023-01-10T02:28:48.787Z,47.86
2023-01-10T02:29:48.780Z,52.66
2023-01-10T02:30:48.769Z,53.67
2023-01-10T02:31:48.756Z,54.27
2023-01-10T02:32:56.954Z,44.83
2023-01-10T02:33:50.748Z,50.77
2023-01-10T02:34:48.735Z,59.81
2023-01-10T02:35:48.722Z,58.98
2023-01-10T02:36:48.712Z,56.09
2023-01-10T02:37:48.706Z,56.72
2023-01-10T02:38:48.711Z,41.47
2023-01-10T02:39:48.693Z,52.69
2023-01-10T02:40:48.687Z,57.08
2023-01-10T02:41:48.679Z,41.03
2023-01-10T02:42:48.667Z,42.61
2023-01-10T02:43:48.651Z,56.44
2023-01-10T02:44:49.662Z,50.42
2023-01-10T02:45:48.662Z,50.06
2023-01-10T02:46:48.708Z,47.49
2023-01-10T02:47:48.621Z,40.27
2023-01-10T02:48:48.616Z,39.45
2023-01-10T02:49:48.612Z,45.93
2023-01-10T02:50:48.606Z,48.32
2023-01-10T02:51:48.594Z,46.03
2023-01-10T02:52:48.579Z,40.10
2023-01-10T02:53:48.571Z,53.39
2023-01-10T02:54:48.569Z,62.18
2023-01-10T02:55:48.567Z,51.04
2023-01-10T02:56:48.576Z,52.96
2023-01-10T02:57:48.549Z,45.81
2023-01-10T02:58:48.603Z,58.48
2023-01-10T02:59:48.532Z,59.77
2023-01-10T03:00:48.529Z,56.56
2023-01-10T03:01:48.557Z,54.41
2023-01-10T03:02:48.505Z,40.73
2023-01-10T03:03:48.492Z,40.42
2023-01-10T03:04:48.556Z,41.65
2023-01-10T03:05:48.471Z,46.31
2023-01-10T03:06:48.488Z,47.77
2023-01-10T03:07:48.476Z,52.22
2023-01-10T03:08:49.079Z,59.40
2023-01-10T03:09:48.453Z,61.26
2023-01-10T03:10:48.442Z,58.54
2023-01-10T03:11:48.428Z,57.39
2023-01-10T03:12:48.452Z,52.53
2023-01-10T03:13:48.421Z,50.25
2023-01-10T03:14:48.402Z,50.65
2023-01-10T03:15:48.410Z,58.49
2023-01-10T03:16:48.395Z,56.15
2023-01-10T03:17:48.380Z,52.66
2023-01-10T03:18:48.373Z,53.31
2023-01-10T03:19:48.359Z,41.88
2023-01-10T03:20:48.357Z,54.50
2023-01-10T03:21:48.344Z,55.93
2023-01-10T03:22:48.362Z,48.39
2023-01-10T03:23:48.351Z,50.67
2023-01-10T03:24:48.339Z,52.89
2023-01-10T03:25:49.321Z,51.70
2023-01-10T03:26:48.307Z,52.26
2023-01-10T03:27:48.383Z,58.03
2023-01-10T03:28:48.294Z,54.41
2023-01-10T03:29:48.295Z,50.51
2023-01-10T03:30:48.284Z,54.10
2023-01-10T03:31:48.283Z,54.58
2023-01-10T03:32:48.282Z,51.13
2023-01-10T03:33:48.251Z,53.36
2023-01-10T03:34:48.272Z,55.81
2023-01-10T03:35:48.244Z,58.83
2023-01-10T03:36:48.230Z,55.13
2023-01-10T03:37:48.227Z,50.82
2023-01-10T03:38:48.215Z,52.87
2023-01-10T03:39:48.208Z,44.60
2023-01-10T03:40:48.207Z,45.02
2023-01-10T03:41:48.190Z,47.90
2023-01-10T03:42:48.189Z,47.06
2023-01-10T03:43:48.176Z,52.96
2023-01-10T03:44:48.158Z,50.86
2023-01-10T03:45:49.166Z,47.39
2023-01-10T03:46:48.190Z,59.93
2023-01-10T03:47:48.152Z,59.63
2023-01-10T03:48:48.215Z,60.98
2023-01-10T03:49:48.145Z,50.57
2023-01-10T03:50:48.121Z,57.97
2023-01-10T03:51:48.108Z,58.16
2023-01-10T03:52:48.102Z,56.66
2023-01-10T03:53:48.100Z,53.59
2023-01-10T03:54:48.097Z,62.35
2023-01-10T03:55:48.084Z,58.12
2023-01-10T03:56:48.080Z,51.54
2023-01-10T03:57:48.059Z,58.00
2023-01-10T03:58:48.057Z,58.20
2023-01-10T03:59:48.042Z,49.87
2023-01-10T04:00:48.071Z,58.69
2023-01-10T04:01:48.198Z,58.87
2023-01-10T04:02:48.029Z,47.01
2023-01-10T04:03:48.070Z,59.57
2023-01-10T04:04:48.651Z,61.28
2023-01-10T04:05:47.998Z,54.85
2023-01-10T04:06:47.992Z,53.50
2023-01-10T04:07:47.992Z,60.48
2023-01-10T04:08:47.989Z,60.15
2023-01-10T04:09:47.961Z,65.54
2023-01-10T04:10:47.955Z,59.58
2023-01-10T04:11:47.945Z,61.71
2023-01-10T04:12:47.947Z,59.01
2023-01-10T04:13:47.939Z,60.96
2023-01-10T04:14:47.955Z,61.28
2023-01-10T04:15:47.915Z,59.47
2023-01-10T04:16:47.911Z,64.23
2023-01-10T04:17:47.923Z,63.80
2023-01-10T04:18:47.891Z,63.66
2023-01-10T04:19:47.885Z,61.63
2023-01-10T04:20:47.883Z,65.16
2023-01-10T04:21:47.873Z,67.40
2023-01-10T04:22:47.868Z,62.27
2023-01-10T04:23:47.861Z,61.77
2023-01-10T04:24:47.850Z,63.49
2023-01-10T04:25:47.851Z,61.37
2023-01-10T04:26:47.853Z,59.72
2023-01-10T04:27:47.843Z,59.57
2023-01-10T04:28:47.816Z,62.19
2023-01-10T04:29:47.799Z,62.17
2023-01-10T04:30:47.796Z,62.45
2023-01-10T04:31:47.865Z,59.20
2023-01-10T04:32:47.779Z,61.44
2023-01-10T04:33:47.771Z,61.75
2023-01-10T04:34:47.760Z,62.52
2023-01-10T04:35:47.763Z,63.94
2023-01-10T04:36:49.920Z,63.97
2023-01-10T04:37:47.736Z,68.36
2023-01-10T04:38:48.654Z,66.02
2023-01-10T04:39:47.725Z,63.06
2023-01-10T04:40:47.718Z,68.00
2023-01-10T04:41:47.727Z,62.62
2023-01-10T04:42:47.740Z,59.25
2023-01-10T04:43:47.697Z,61.76
2023-01-10T04:44:47.695Z,64.53
2023-01-10T04:45:47.703Z,60.61
2023-01-10T04:46:48.582Z,64.46
2023-01-10T04:47:47.661Z,61.41
2023-01-10T04:48:47.655Z,57.65
2023-01-10T04:49:47.640Z,64.27
2023-01-10T04:50:47.635Z,64.04
2023-01-10T04:51:47.629Z,65.92
2023-01-10T04:52:47.625Z,68.20
2023-01-10T04:53:47.615Z,61.02
2023-01-10T04:54:47.609Z,62.29
2023-01-10T04:55:47.604Z,66.89
2023-01-10T04:56:47.587Z,60.49
2023-01-10T04:57:47.585Z,60.18
2023-01-10T04:58:47.572Z,66.39
2023-01-10T04:59:47.561Z,62.79
2023-01-10T05:00:47.551Z,64.70
2023-01-10T05:01:47.674Z,64.13
2023-01-10T05:02:47.625Z,64.05
2023-01-10T05:03:47.529Z,64.42
2023-01-10T05:04:47.511Z,63.91
2023-01-10T05:05:47.516Z,65.43
2023-01-10T05:06:47.498Z,65.05
2023-01-10T05:07:47.521Z,62.24
2023-01-10T05:08:47.490Z,61.13
2023-01-10T05:09:47.481Z,62.36
2023-01-10T05:10:47.477Z,65.59
2023-01-10T05:11:47.465Z,61.35
2023-01-10T05:12:47.469Z,61.86
2023-01-10T05:13:48.207Z,62.44
2023-01-10T05:14:48.436Z,61.99
2023-01-10T05:15:47.434Z,64.98
2023-01-10T05:16:47.457Z,64.54
2023-01-10T05:17:48.167Z,64.82
2023-01-10T05:18:47.410Z,65.85
2023-01-10T05:19:47.408Z,63.64
2023-01-10T05:20:47.397Z,62.62
2023-01-10T05:21:47.385Z,64.68
2023-01-10T05:22:47.376Z,66.30
2023-01-10T05:23:47.362Z,64.54
2023-01-10T05:24:47.369Z,63.50
2023-01-10T05:25:47.340Z,62.55
2023-01-10T05:26:47.338Z,68.50
2023-01-10T05:27:47.327Z,66.25
2023-01-10T05:28:47.325Z,65.62
2023-01-10T05:29:47.318Z,64.60
2023-01-10T05:30:47.363Z,64.98
2023-01-10T05:31:47.323Z,65.34
2023-01-10T05:32:47.294Z,66.62
2023-01-10T05:33:47.277Z,64.89
2023-01-10T05:34:47.270Z,66.86
2023-01-10T05:35:47.261Z,65.15
2023-01-10T05:36:47.259Z,64.93
2023-01-10T05:37:47.253Z,64.64
2023-01-10T05:38:47.255Z,67.92
2023-01-10T05:39:47.219Z,65.33
2023-01-10T05:40:48.226Z,65.15
2023-01-10T05:41:47.217Z,61.88
2023-01-10T05:42:47.213Z,64.68
2023-01-10T05:43:47.205Z,65.67
2023-01-10T05:44:47.212Z,63.48
2023-01-10T05:45:47.196Z,65.32
2023-01-10T05:46:47.173Z,66.53
2023-01-10T05:47:48.164Z,64.57
2023-01-10T05:48:47.173Z,64.90
2023-01-10T05:49:47.162Z,66.58
2023-01-10T05:50:47.145Z,65.46
2023-01-10T05:51:47.141Z,66.95
2023-01-10T05:52:47.126Z,68.53
2023-01-10T05:53:48.065Z,69.18
2023-01-10T05:54:48.164Z,67.73
2023-01-10T05:55:47.662Z,67.14
2023-01-10T05:56:47.101Z,65.26
2023-01-10T05:57:47.093Z,66.72
2023-01-10T05:58:47.385Z,66.56
2023-01-10T05:59:48.085Z,65.52
2023-01-10T06:00:47.066Z,66.70
2023-01-10T06:01:47.075Z,64.49
2023-01-10T06:02:47.158Z,68.87
2023-01-10T06:03:47.043Z,66.71
2023-01-10T06:04:47.067Z,65.59
2023-01-10T06:05:48.806Z,62.69
2023-01-10T06:06:48.020Z,68.27
2023-01-10T06:07:47.030Z,70.43
2023-01-10T06:08:47.004Z,67.29
2023-01-10T06:09:47.000Z,64.97
2023-01-10T06:10:47.004Z,63.95
2023-01-10T06:11:46.981Z,66.03
2023-01-10T06:12:46.980Z,66.82
2023-01-10T06:13:47.672Z,67.93
2023-01-10T06:14:46.964Z,65.20
2023-01-10T06:15:47.712Z,68.39
2023-01-10T06:16:46.944Z,67.94
2023-01-10T06:17:46.932Z,66.23
2023-01-10T06:18:46.921Z,66.25
2023-01-10T06:19:46.913Z,65.86
2023-01-10T06:20:46.907Z,71.06
2023-01-10T06:21:46.903Z,70.30
2023-01-10T06:22:46.896Z,67.79
2023-01-10T06:23:46.879Z,67.11
2023-01-10T06:24:46.897Z,69.30
2023-01-10T06:25:46.887Z,67.74
2023-01-10T06:26:46.867Z,67.95
2023-01-10T06:27:46.836Z,67.23
2023-01-10T06:28:47.845Z,67.19
2023-01-10T06:29:46.832Z,67.67
2023-01-10T06:30:46.877Z,68.54
2023-01-10T06:31:48.687Z,67.86
2023-01-10T06:32:46.830Z,69.24
2023-01-10T06:33:47.675Z,68.69
2023-01-10T06:34:46.821Z,68.74
2023-01-10T06:35:46.825Z,67.16
2023-01-10T06:36:46.778Z,68.76
2023-01-10T06:37:46.777Z,68.58
2023-01-10T06:38:47.601Z,69.23
2023-01-10T06:39:46.753Z,69.34
2023-01-10T06:40:46.750Z,68.60
2023-01-10T06:41:46.736Z,68.01
2023-01-10T06:42:46.741Z,69.22
2023-01-10T06:43:46.782Z,68.18
2023-01-10T06:44:46.718Z,69.22
2023-01-10T06:45:46.791Z,66.96
2023-01-10T06:46:46.702Z,67.69
2023-01-10T06:47:46.699Z,65.03
2023-01-10T06:48:46.686Z,68.12
2023-01-10T06:49:46.676Z,67.41
2023-01-10T06:50:46.684Z,67.98
2023-01-10T06:51:46.667Z,67.44
2023-01-10T06:52:48.601Z,67.09
2023-01-10T06:53:46.654Z,65.32
2023-01-10T06:54:46.644Z,68.08
2023-01-10T06:55:46.644Z,68.63
2023-01-10T06:56:46.627Z,71.33
2023-01-10T06:57:46.613Z,73.04
2023-01-10T06:58:49.599Z,70.02
2023-01-10T06:59:46.622Z,68.58
2023-01-10T07:00:46.677Z,70.53
2023-01-10T07:01:46.777Z,67.22
2023-01-10T07:02:46.573Z,67.08
2023-01-10T07:03:47.224Z,68.83
2023-01-10T07:04:46.560Z,68.66
2023-01-10T07:05:46.566Z,65.41
2023-01-10T07:06:46.545Z,66.51
2023-01-10T07:07:46.530Z,66.45
2023-01-10T07:08:46.520Z,66.51
2023-01-10T07:09:46.513Z,67.45
2023-01-10T07:10:47.123Z,67.14
2023-01-10T07:11:46.517Z,68.49
2023-01-10T07:12:46.488Z,68.41
2023-01-10T07:13:46.484Z,64.70
2023-01-10T07:14:46.472Z,65.72
2023-01-10T07:15:47.114Z,65.64
2023-01-10T07:16:46.460Z,65.81
2023-01-10T07:17:46.469Z,68.66
2023-01-10T07:18:46.454Z,69.55
2023-01-10T07:19:46.493Z,70.07
2023-01-10T07:20:46.431Z,68.31
2023-01-10T07:21:46.427Z,67.14
2023-01-10T07:22:46.421Z,67.30
2023-01-10T07:23:46.414Z,67.06
2023-01-10T07:24:46.441Z,66.87
2023-01-10T07:25:46.397Z,65.47
2023-01-10T07:26:46.386Z,65.80
2023-01-10T07:27:47.104Z,67.78
2023-01-10T07:28:46.385Z,66.21
2023-01-10T07:29:46.403Z,66.18
2023-01-10T07:30:46.353Z,68.26
2023-01-10T07:31:46.358Z,66.72
2023-01-10T07:32:46.351Z,69.50
2023-01-10T07:33:46.343Z,68.90
2023-01-10T07:34:46.330Z,69.06
2023-01-10T07:35:46.312Z,69.88
2023-01-10T07:36:46.302Z,65.81
2023-01-10T07:37:46.295Z,67.73
2023-01-10T07:38:46.297Z,64.85
2023-01-10T07:39:46.283Z,67.29
2023-01-10T07:40:46.284Z,66.56
2023-01-10T07:41:46.276Z,65.26
2023-01-10T07:42:46.288Z,66.06
2023-01-10T07:43:46.243Z,68.43
2023-01-10T07:44:48.028Z,66.35
2023-01-10T07:45:46.247Z,69.51
2023-01-10T07:46:46.230Z,67.16
2023-01-10T07:47:46.241Z,66.74
2023-01-10T07:48:46.227Z,66.95
2023-01-10T07:49:46.211Z,68.07
2023-01-10T07:50:46.212Z,69.15
2023-01-10T07:51:46.205Z,70.36
2023-01-10T07:52:46.193Z,67.95
2023-01-10T07:53:46.186Z,66.78
2023-01-10T07:54:46.169Z,68.57
2023-01-10T07:55:46.173Z,68.86
2023-01-10T07:56:46.152Z,67.65
2023-01-10T07:57:46.137Z,67.96
2023-01-10T07:58:46.131Z,67.30
2023-01-10T07:59:46.147Z,64.42
2023-01-10T08:00:46.125Z,70.27
2023-01-10T08:01:46.113Z,68.35
2023-01-10T08:02:46.190Z,68.83
2023-01-10T08:03:46.115Z,68.21
2023-01-10T08:04:46.134Z,69.81
2023-01-10T08:05:46.091Z,67.95
2023-01-10T08:06:46.065Z,65.59
2023-01-10T08:07:46.057Z,67.44
2023-01-10T08:08:46.079Z,65.46
2023-01-10T08:09:46.061Z,67.92
2023-01-10T08:10:46.059Z,66.71
2023-01-10T08:11:46.033Z,66.41
2023-01-10T08:12:46.027Z,69.38
2023-01-10T08:13:46.014Z,63.99
2023-01-10T08:14:46.633Z,65.24
2023-01-10T08:15:46.058Z,68.24
2023-01-10T08:16:45.997Z,66.81
2023-01-10T08:17:46.001Z,68.70
2023-01-10T08:18:45.980Z,67.46
2023-01-10T08:19:46.615Z,67.17
2023-01-10T08:20:45.976Z,68.31
2023-01-10T08:21:46.704Z,70.40
2023-01-10T08:22:45.945Z,67.75
2023-01-10T08:23:45.954Z,66.52
2023-01-10T08:24:45.938Z,68.50
2023-01-10T08:25:45.925Z,68.11
2023-01-10T08:26:46.628Z,66.43
2023-01-10T08:27:45.910Z,66.89
2023-01-10T08:28:45.893Z,64.57
2023-01-10T08:29:45.911Z,65.90
2023-01-10T08:30:45.885Z,68.55
2023-01-10T08:31:45.878Z,67.18
2023-01-10T08:32:45.868Z,68.21
2023-01-10T08:33:45.871Z,68.37
2023-01-10T08:34:45.852Z,67.90
2023-01-10T08:35:45.859Z,66.35
2023-01-10T08:36:46.623Z,68.55
2023-01-10T08:37:46.648Z,65.74
2023-01-10T08:38:45.848Z,66.07
2023-01-10T08:39:45.815Z,67.89
2023-01-10T08:40:45.791Z,67.22
2023-01-10T08:41:45.785Z,67.21
2023-01-10T08:42:45.785Z,68.06
2023-01-10T08:43:45.790Z,64.76
2023-01-10T08:44:45.752Z,66.28
2023-01-10T08:45:45.749Z,66.37
2023-01-10T08:46:45.878Z,66.20
2023-01-10T08:47:45.731Z,66.34
2023-01-10T08:48:45.755Z,66.84
2023-01-10T08:49:45.754Z,66.87
2023-01-10T08:50:45.713Z,64.90
2023-01-10T08:51:45.704Z,64.94
2023-01-10T08:52:45.788Z,66.35
2023-01-10T08:53:45.711Z,67.43
2023-01-10T08:54:45.686Z,68.27
2023-01-10T08:55:45.673Z,68.00
2023-01-10T08:56:45.673Z,68.41
2023-01-10T08:57:45.693Z,67.32
2023-01-10T08:58:45.659Z,67.91
2023-01-10T08:59:45.639Z,68.01
2023-01-10T09:00:45.636Z,68.73
2023-01-10T09:01:45.760Z,68.30
2023-01-10T09:02:46.220Z,68.04
2023-01-10T09:03:45.605Z,67.94
2023-01-10T09:04:45.620Z,69.50
2023-01-10T09:05:45.588Z,67.63
2023-01-10T09:06:46.606Z,69.64
2023-01-10T09:07:45.586Z,66.97
2023-01-10T09:08:45.568Z,65.66
2023-01-10T09:09:45.554Z,65.42
2023-01-10T09:10:45.562Z,66.08
2023-01-10T09:11:45.563Z,66.47
2023-01-10T09:12:45.536Z,67.08
2023-01-10T09:13:45.524Z,65.13
2023-01-10T09:14:45.512Z,67.99
2023-01-10T09:15:45.559Z,66.76
2023-01-10T09:16:45.570Z,66.92
2023-01-10T09:17:45.494Z,69.43
2023-01-10T09:18:45.482Z,67.40
2023-01-10T09:19:45.473Z,67.56
2023-01-10T09:20:45.471Z,69.22
2023-01-10T09:21:45.458Z,66.52
2023-01-10T09:22:45.442Z,67.18
2023-01-10T09:23:45.448Z,66.96
2023-01-10T09:24:46.144Z,69.91
2023-01-10T09:25:45.435Z,67.16
2023-01-10T09:26:45.418Z,67.11
2023-01-10T09:27:45.415Z,67.30
2023-01-10T09:28:48.032Z,67.71
2023-01-10T09:29:45.420Z,68.66
2023-01-10T09:30:45.416Z,68.91
2023-01-10T09:31:46.194Z,68.41
2023-01-10T09:32:45.367Z,67.85
2023-01-10T09:33:47.415Z,66.94
2023-01-10T09:34:46.364Z,67.75
2023-01-10T09:35:45.368Z,68.45
2023-01-10T09:36:45.342Z,64.79
2023-01-10T09:37:45.328Z,67.92
2023-01-10T09:38:45.346Z,66.67
2023-01-10T09:39:45.315Z,67.47
2023-01-10T09:40:45.302Z,66.95
2023-01-10T09:41:45.293Z,67.23
2023-01-10T09:42:45.293Z,69.37
2023-01-10T09:43:45.295Z,67.25
2023-01-10T09:44:45.265Z,66.12
2023-01-10T09:45:45.282Z,67.59
2023-01-10T09:46:45.363Z,66.66
2023-01-10T09:47:45.247Z,64.74
2023-01-10T09:48:45.248Z,66.49
2023-01-10T09:49:47.149Z,63.98
2023-01-10T09:50:45.242Z,67.00
2023-01-10T09:51:45.216Z,69.88
2023-01-10T09:52:45.197Z,68.28
2023-01-10T09:53:45.186Z,69.34
2023-01-10T09:54:46.200Z,67.27
2023-01-10T09:55:45.712Z,65.85
2023-01-10T09:56:45.172Z,66.26
2023-01-10T09:57:45.159Z,67.73
2023-01-10T09:58:45.154Z,66.58
2023-01-10T09:59:45.149Z,66.48
2023-01-10T10:00:45.153Z,69.57
2023-01-10T10:01:45.134Z,70.36
2023-01-10T10:02:45.127Z,76.15
2023-01-10T10:03:45.250Z,80.20
2023-01-10T10:04:45.117Z,77.92
2023-01-10T10:05:45.096Z,73.07
2023-01-10T10:06:45.087Z,70.52
2023-01-10T10:07:45.078Z,63.75
2023-01-10T10:08:45.070Z,67.44
2023-01-10T10:09:45.093Z,73.03
2023-01-10T10:10:45.068Z,75.65
2023-01-10T10:11:45.050Z,75.19
2023-01-10T10:12:45.087Z,70.69
2023-01-10T10:13:45.037Z,67.11
2023-01-10T10:14:45.026Z,68.88
2023-01-10T10:15:45.019Z,71.27
2023-01-10T10:16:45.021Z,69.41
2023-01-10T10:17:45.006Z,70.74
2023-01-10T10:18:46.598Z,76.81
2023-01-10T10:19:44.992Z,75.90
2023-01-10T10:20:44.984Z,72.65
2023-01-10T10:21:44.971Z,69.82
2023-01-10T10:22:44.974Z,68.14
2023-01-10T10:23:45.718Z,69.44
2023-01-10T10:24:44.948Z,65.02
2023-01-10T10:25:45.953Z,66.78
2023-01-10T10:26:45.332Z,66.38
2023-01-10T10:27:45.069Z,66.99
2023-01-10T10:28:53.807Z,65.43
2023-01-10T10:29:47.735Z,68.70
2023-01-10T10:30:45.899Z,73.39
2023-01-10T10:31:45.031Z,75.92
2023-01-10T10:32:44.891Z,72.95
2023-01-10T10:33:44.883Z,69.33
2023-01-10T10:34:44.871Z,67.26
2023-01-10T10:35:44.863Z,65.55
2023-01-10T10:36:45.725Z,68.23
2023-01-10T10:37:45.638Z,68.57
2023-01-10T10:38:44.836Z,67.37
2023-01-10T10:39:44.832Z,65.66
2023-01-10T10:40:44.854Z,64.89
2023-01-10T10:41:44.842Z,66.71
2023-01-10T10:42:44.801Z,65.84
2023-01-10T10:43:44.794Z,65.40
2023-01-10T10:44:44.791Z,66.69
2023-01-10T10:45:44.835Z,65.10
2023-01-10T10:46:44.779Z,67.57
2023-01-10T10:49:56.429Z,66.37
2023-01-10T10:50:56.426Z,67.19
2023-01-10T10:51:55.525Z,65.94
2023-01-10T10:52:56.502Z,65.45
2023-01-10T10:53:55.512Z,65.16
2023-01-10T10:54:55.499Z,66.93
2023-01-10T10:55:55.515Z,67.84
2023-01-10T10:56:55.457Z,66.17
2023-01-10T10:58:00.605Z,64.31
2023-01-10T10:58:56.465Z,66.41
2023-01-10T10:59:55.457Z,66.82
2023-01-10T11:00:55.527Z,68.13
2023-01-10T11:01:57.435Z,66.34
2023-01-10T11:02:55.411Z,68.60
2023-01-10T11:03:55.408Z,68.58
2023-01-10T11:04:55.468Z,67.50
2023-01-10T11:05:55.411Z,67.14
2023-01-10T11:06:55.384Z,65.29
2023-01-10T11:07:56.474Z,68.23
2023-01-10T11:08:56.473Z,64.54
2023-01-10T11:09:56.457Z,65.90
2023-01-10T11:10:56.973Z,66.35
2023-01-10T11:11:57.400Z,63.46
2023-01-10T11:12:56.429Z,65.86
2023-01-10T11:13:56.452Z,65.82
2023-01-10T11:14:57.967Z,67.13
2023-01-10T11:15:56.465Z,66.45
2023-01-10T11:16:56.396Z,64.15
2023-01-10T11:17:56.384Z,66.72
2023-01-10T11:18:56.380Z,69.61
2023-01-10T11:19:56.407Z,66.79
2023-01-10T11:20:58.040Z,65.91
2023-01-10T11:21:56.381Z,68.79
2023-01-10T11:22:56.370Z,66.70
2023-01-10T11:23:57.983Z,66.63
2023-01-10T11:24:56.394Z,65.57
2023-01-10T11:25:56.985Z,66.77
2023-01-10T11:26:58.005Z,66.10
2023-01-10T11:28:29.420Z,68.86
2023-01-10T11:28:56.299Z,70.16
2023-01-10T11:29:56.283Z,69.23
2023-01-10T11:30:56.282Z,73.20
2023-01-10T11:31:56.390Z,71.90
2023-01-10T11:32:56.264Z,68.90
2023-01-10T11:33:56.275Z,65.44
2023-01-10T11:34:57.270Z,71.78
2023-01-10T11:35:56.262Z,77.85
2023-01-10T11:36:56.265Z,75.79
2023-01-10T11:37:57.910Z,74.02
2023-01-10T11:38:56.215Z,69.79
2023-01-10T11:39:56.221Z,66.62
2023-01-10T11:40:56.188Z,66.34
2023-01-10T11:41:56.188Z,65.77
2023-01-10T11:42:58.302Z,65.72
2023-01-10T11:43:57.206Z,64.33
2023-01-10T11:44:56.160Z,65.33
2023-01-10T11:45:56.202Z,66.93
2023-01-10T11:46:57.995Z,67.54
2023-01-10T11:47:56.940Z,65.68
2023-01-10T11:49:05.402Z,66.74
2023-01-10T11:49:59.930Z,65.00
2023-01-10T11:50:56.119Z,66.80
2023-01-10T11:51:56.135Z,65.68
2023-01-10T11:52:56.152Z,72.31
2023-01-10T11:53:56.147Z,64.61
2023-01-10T11:54:58.291Z,68.53
2023-01-10T11:55:57.108Z,69.70
2023-01-10T11:56:56.112Z,67.48
2023-01-10T11:57:57.012Z,67.15
2023-01-10T11:58:57.057Z,68.81
2023-01-10T11:59:56.051Z,66.88
2023-01-10T12:00:58.816Z,67.25
2023-01-10T12:04:00.989Z,66.63
2023-01-10T12:04:02.444Z,0.00
2023-01-10T12:05:02.497Z,71.16
2023-01-10T12:06:06.927Z,66.49
2023-01-10T12:07:03.047Z,65.89
2023-01-10T12:08:04.046Z,67.33
2023-01-10T12:09:02.423Z,68.57
2023-01-10T12:10:03.015Z,64.66
2023-01-10T12:11:02.415Z,65.37
2023-01-10T12:12:02.381Z,65.56
2023-01-10T12:13:02.366Z,67.35
2023-01-10T12:14:02.373Z,67.31
2023-01-10T12:15:03.443Z,67.32
2023-01-10T12:16:02.346Z,67.09
2023-01-10T12:17:03.064Z,68.35
2023-01-10T12:18:03.317Z,69.51
2023-01-10T12:19:02.379Z,68.35
2023-01-10T12:20:02.944Z,70.48
2023-01-10T12:21:02.303Z,67.93
2023-01-10T12:22:02.291Z,67.42
2023-01-10T12:23:02.425Z,66.88
2023-01-10T12:24:02.941Z,68.83
2023-01-10T12:25:02.289Z,66.22
2023-01-10T12:26:11.807Z,65.89
2023-01-10T12:27:05.001Z,66.74
2023-01-10T12:28:02.268Z,65.05
2023-01-10T12:29:02.933Z,66.79
2023-01-10T12:30:02.240Z,65.76
2023-01-10T12:31:02.238Z,67.64
2023-01-10T12:32:02.208Z,68.07
2023-01-10T12:33:02.208Z,67.27
2023-01-10T12:34:02.204Z,65.51
2023-01-10T12:35:02.210Z,66.33
2023-01-10T12:36:02.195Z,64.54
2023-01-10T12:37:02.167Z,65.79
2023-01-10T12:38:02.186Z,65.54
2023-01-10T12:39:02.151Z,68.00
2023-01-10T12:42:08.412Z,66.39
2023-01-10T12:43:08.428Z,65.59
2023-01-10T12:44:08.400Z,65.83
2023-01-10T12:45:08.390Z,64.39
2023-01-10T12:46:26.343Z,67.08
2023-01-10T12:47:13.302Z,68.39
2023-01-10T12:48:11.277Z,66.43
2023-01-10T12:49:09.456Z,64.33
2023-01-10T12:50:09.519Z,65.58
2023-01-10T12:51:09.441Z,65.24
2023-01-10T12:52:09.426Z,66.32
2023-01-10T12:53:09.442Z,66.42
2023-01-10T12:54:09.415Z,66.10
2023-01-10T12:55:09.413Z,68.55
2023-01-10T12:56:10.289Z,67.33
2023-01-10T12:57:09.405Z,65.00
2023-01-10T12:58:09.380Z,67.22
2023-01-10T12:59:09.373Z,66.02
2023-01-10T13:00:09.492Z,66.79